< < Back
Terminal Aerodrome Forecast


Current Version              Previous Versions:   1  2  3  4  5  6  7  8  9  

Terminal Aerodrome Forecast

335
FTUS42 KILM 250500
TAFILM
TAF
KILM 250522Z 2506/2606 VRB02KT P6SM SCT250
      TEMPO 2509/2512 4SM BR
     FM251600 28006KT P6SM SKC=



Latest METAR

928
SAUS70 KWBC 251700 RRB
MTRILM
METAR KILM 251653Z AUTO 34007KT 10SM CLR 22/05 A2997 RMK AO2 SLP149
T02220050


USA.gov is the U.S. government's official web portal to all federal, state and local government web resources and services.